Terminal Aerodrome Forecast
Issued by NWS

Current Version | Previous Version | Text Only | Print | Product List | Glossary On
Versions: 1 2 3 4 5 6 7 8 9 10 11 12 13 14 15 16 17 18 19 20
000
FTUS43 KDTX 011726
TAFPTK
TAF
KPTK 011726Z 0118/0218 22018G26KT 4SM -SHRA OVC012
     FM011900 26020G27KT P6SM BKN015 BKN025 OVC040
     FM012100 26022G34KT P6SM OVC022
     FM020300 30018G24KT 6SM -SHSN OVC022
     FM021000 30012G18KT P6SM SCT025=

USA.gov is the U.S. government's official web portal to all federal, state and local government web resources and services.